Аэропорт: Ужгород. Ужгород

ICAO: UKLU

METAR:
Информация по данной станции не доступна
METAR:
2020-10-19 14:02:00
TAF UKLU 191402Z 1915/1924 VRB01MPS 9999 NSC